Time;durP1;ratioP1;P1;durP2;ratioP2;P2;SDS_P1;SDS_P2;PMS_P1;PMS_P2;Temp;Humidity;BMP_temperature;BMP_pressure;BME280_temperature;BME280_humidity;BME280_pressure;Samples;Min_cycle;Max_cycle;Signal;HPM_P1;HPM_P2
2021/03/09 00:01:46;;;;;;;58.42;29.80;;;;;;;6.64;65.98;100666.13;5020833;28;20348;-77
2021/03/09 00:04:15;;;;;;;57.35;29.05;;;;;;;6.68;66.38;100667.22;5020320;28;20503;-77
2021/03/09 00:06:44;;;;;;;53.70;27.60;;;;;;;6.68;66.42;100667.22;5021081;28;20049;-77
2021/03/09 00:09:11;;;;;;;60.05;28.38;;;;;;;6.64;66.51;100666.13;5020210;28;20510;-77
2021/03/09 00:11:38;;;;;;;57.28;25.35;;;;;;;6.66;66.27;100669.44;5020472;28;20054;-77
2021/03/09 00:14:06;;;;;;;47.15;24.60;;;;;;;6.67;66.06;100662.78;5021054;28;20499;-77
2021/03/09 00:16:33;;;;;;;50.10;25.77;;;;;;;6.65;65.47;100671.34;5019740;28;20053;-77
2021/03/09 00:19:00;;;;;;;46.08;24.48;;;;;;;6.65;66.06;100653.91;5020030;28;20058;-77
2021/03/09 00:21:27;;;;;;;46.92;23.42;;;;;;;6.66;66.22;100669.44;5019533;28;20423;-77
2021/03/09 00:23:54;;;;;;;50.63;24.67;;;;;;;6.63;66.67;100661.69;5020682;28;20048;-77
2021/03/09 00:26:21;;;;;;;55.92;28.95;;;;;;;6.61;66.17;100661.13;5020103;28;20049;-77
2021/03/09 00:28:48;;;;;;;58.28;28.63;;;;;;;6.63;66.54;100664.44;5019965;28;20061;-75
2021/03/09 00:31:15;;;;;;;51.50;24.60;;;;;;;6.52;66.03;100660.06;5019274;28;20065;-76
2021/03/09 00:33:42;;;;;;;45.33;24.40;;;;;;;6.55;66.10;100654.81;5019586;28;20053;-77
2021/03/09 00:36:17;;;;;;;55.70;29.00;;;;;;;6.59;66.21;100661.41;5025512;28;20061;-77
2021/03/09 00:38:56;;;;;;;57.97;28.45;;;;;;;6.60;66.54;100665.84;5029128;28;20046;-77
2021/03/09 00:41:31;;;;;;;55.92;30.42;;;;;;;6.61;66.87;100664.72;5027803;28;20068;-77
2021/03/09 00:44:05;;;;;;;56.40;30.40;;;;;;;6.59;66.74;100663.34;5028338;28;20052;-77
2021/03/09 00:46:39;;;;;;;56.83;29.00;;;;;;;6.65;66.26;100665.00;5027451;28;20057;-77
2021/03/09 00:49:17;;;;;;;56.25;28.42;;;;;;;6.62;65.87;100655.31;5028419;28;20061;-77
2021/03/09 00:51:49;;;;;;;56.17;28.50;;;;;;;6.65;66.41;100659.44;5027747;28;20050;-77
2021/03/09 00:54:23;;;;;;;54.42;28.02;;;;;;;6.63;66.49;100656.13;5026373;28;20065;-77
2021/03/09 00:56:54;;;;;;;54.03;27.40;;;;;;;6.68;66.03;100653.38;5027715;28;20054;-77
2021/03/09 00:59:29;;;;;;;55.95;27.70;;;;;;;6.69;66.48;100660.53;5034517;28;20057;-77
2021/03/09 01:02:06;;;;;;;54.33;27.73;;;;;;;6.70;65.17;100645.59;5044563;28;20049;-77
2021/03/09 01:04:38;;;;;;;50.78;26.13;;;;;;;6.66;65.23;100639.81;5042895;28;20053;-77
2021/03/09 01:07:14;;;;;;;52.30;27.17;;;;;;;6.64;64.95;100641.22;5041478;28;20057;-77
2021/03/09 01:09:46;;;;;;;50.90;26.08;;;;;;;6.67;64.58;100644.22;5041177;28;20061;-77
2021/03/09 01:12:19;;;;;;;49.40;25.63;;;;;;;6.65;64.47;100640.91;5043297;28;20053;-77
2021/03/09 01:14:56;;;;;;;48.92;24.98;;;;;;;6.67;65.80;100646.16;5040339;28;20064;-77
2021/03/09 01:17:26;;;;;;;52.78;27.25;;;;;;;6.62;65.20;100643.44;5041681;28;20058;-77
2021/03/09 01:20:04;;;;;;;;;;;;;;;6.57;64.70;100640.66;5045335;28;20049;-77
2021/03/09 01:22:39;;;;;;;47.47;24.33;;;;;;;6.57;65.19;100637.91;5045332;28;19928;-77
2021/03/09 01:25:15;;;;;;;51.20;25.95;;;;;;;6.58;65.03;100631.28;5029491;28;20054;-77
2021/03/09 01:27:44;;;;;;;49.03;24.80;;;;;;;6.53;64.27;100631.28;5025044;28;20062;-77
2021/03/09 01:30:17;;;;;;;52.05;26.58;;;;;;;6.52;64.15;100624.09;5024326;28;20061;-77
2021/03/09 01:32:50;;;;;;;49.92;25.10;;;;;;;6.50;64.55;100618.84;5023699;28;20407;-77
2021/03/09 01:35:21;;;;;;;50.72;26.52;;;;;;;6.55;64.89;100620.75;5018821;28;20064;-77
2021/03/09 01:37:47;;;;;;;;;;;;;;;6.53;64.72;100625.75;5029880;28;20049;-77
2021/03/09 01:40:14;;;;;;;47.85;23.92;;;;;;;6.49;64.98;100620.78;5035394;28;19928;-77
2021/03/09 01:42:41;;;;;;;49.53;25.85;;;;;;;6.47;65.52;100623.00;5034851;28;20045;-77
2021/03/09 01:45:09;;;;;;;47.30;23.90;;;;;;;6.44;64.78;100617.19;5034931;28;20475;-77
2021/03/09 01:47:40;;;;;;;48.03;25.83;;;;;;;6.38;64.97;100613.63;5034575;28;20063;-76
2021/03/09 01:50:11;;;;;;;49.60;23.83;;;;;;;6.32;65.45;100614.78;5034971;28;20046;-75
2021/03/09 01:52:40;;;;;;;48.00;25.13;;;;;;;6.40;65.11;100614.16;5034691;28;20053;-75
2021/03/09 01:55:10;;;;;;;48.97;25.90;;;;;;;6.42;64.69;100611.94;5016711;28;20368;-75
2021/03/09 01:57:38;;;;;;;48.55;26.38;;;;;;;6.43;64.63;100610.84;5014735;28;20050;-76
2021/03/09 02:00:10;;;;;;;51.60;24.65;;;;;;;6.43;65.45;100605.31;5015259;28;20073;-75
2021/03/09 02:02:38;;;;;;;48.95;25.25;;;;;;;6.44;66.32;100604.19;5012979;28;20054;-77
2021/03/09 02:05:07;;;;;;;48.88;24.73;;;;;;;6.47;66.41;100598.09;5015146;28;20050;-75
2021/03/09 02:07:34;;;;;;;48.70;25.37;;;;;;;6.53;66.08;100590.63;5015125;28;20061;-75
2021/03/09 02:10:07;;;;;;;49.20;25.55;;;;;;;6.60;66.28;100584.75;5015053;28;20073;-75
2021/03/09 02:12:43;;;;;;;48.47;25.05;;;;;;;6.54;65.34;100586.72;5016009;28;20049;-75
2021/03/09 02:15:17;;;;;;;50.78;25.90;;;;;;;6.63;65.29;100585.00;5015441;28;20422;-75
2021/03/09 02:17:49;;;;;;;52.35;26.13;;;;;;;6.63;64.69;100584.19;5016174;28;20096;-75
2021/03/09 02:20:42;;;;;;;46.30;24.88;;;;;;;6.62;64.03;100577.81;5034342;28;20065;-75
2021/03/09 02:23:53;;;;;;;51.80;26.33;;;;;;;6.63;64.84;100578.66;5024415;28;20073;-75
2021/03/09 02:26:32;;;;;;;51.10;26.33;;;;;;;6.61;65.42;100569.81;5034899;28;20065;-75
2021/03/09 02:29:18;;;;;;;51.10;26.25;;;;;;;6.61;66.01;100569.81;5037431;28;20549;-74
2021/03/09 02:31:50;;;;;;;53.53;27.70;;;;;;;6.63;65.77;100562.84;5034394;28;20061;-75
2021/03/09 02:34:25;;;;;;;55.22;26.77;;;;;;;6.65;65.93;100568.13;5019458;28;20050;-75
2021/03/09 02:36:52;;;;;;;50.60;26.52;;;;;;;6.67;65.24;100558.41;5020749;28;20049;-75
2021/03/09 02:39:21;;;;;;;54.65;27.85;;;;;;;6.69;64.91;100555.38;5034271;28;20503;-75
2021/03/09 02:41:49;;;;;;;51.83;25.92;;;;;;;6.68;65.63;100556.50;5034657;28;20049;-75
2021/03/09 02:44:23;;;;;;;56.92;26.35;;;;;;;6.72;66.34;100552.03;5040437;28;20053;-75
2021/03/09 02:47:00;;;;;;;45.58;25.13;;;;;;;6.75;65.83;100550.63;5044736;28;20053;-77
2021/03/09 02:49:30;;;;;;;57.60;28.10;;;;;;;6.74;65.54;100549.81;5035181;28;20064;-75
2021/03/09 02:51:57;;;;;;;;;;;;;;;6.77;64.49;100546.47;5033376;28;20049;-75
2021/03/09 02:54:27;;;;;;;51.60;26.73;;;;;;;6.70;64.87;100545.97;5033104;28;19921;-75
2021/03/09 02:56:55;;;;;;;52.42;25.70;;;;;;;6.74;65.42;100546.19;5033542;28;20101;-75
2021/03/09 02:59:23;;;;;;;52.03;26.63;;;;;;;6.69;65.63;100545.09;5033231;28;20053;-75
2021/03/09 03:01:52;;;;;;;55.03;27.95;;;;;;;6.72;65.75;100540.97;5033687;28;20053;-75
2021/03/09 03:04:21;;;;;;;58.22;29.30;;;;;;;6.73;64.49;100533.47;5033523;28;20506;-75
2021/03/09 03:06:49;;;;;;;64.07;32.60;;;;;;;6.73;64.38;100531.53;5033081;28;20076;-75
2021/03/09 03:09:17;;;;;;;59.65;30.55;;;;;;;6.69;64.90;100533.22;5026876;28;20057;-75
2021/03/09 03:11:45;;;;;;;69.93;33.30;;;;;;;6.60;65.03;100527.47;5013617;28;20061;-75
2021/03/09 03:14:14;;;;;;;69.20;33.63;;;;;;;6.59;64.94;100533.28;5013656;28;20137;-75
2021/03/09 03:16:42;;;;;;;72.10;35.28;;;;;;;6.59;65.67;100530.50;5013358;28;20054;-74
2021/03/09 03:19:13;;;;;;;61.42;31.88;;;;;;;6.58;65.05;100523.34;5013965;28;20058;-75
2021/03/09 03:21:41;;;;;;;74.28;35.17;;;;;;;6.50;65.05;100528.34;5013095;28;20065;-75
2021/03/09 03:24:10;;;;;;;64.82;30.80;;;;;;;6.49;65.55;100520.34;5014374;28;20056;-75
2021/03/09 03:26:40;;;;;;;69.28;34.42;;;;;;;6.46;65.53;100516.19;5013693;28;20054;-75
2021/03/09 03:29:10;;;;;;;76.32;34.90;;;;;;;6.38;66.12;100522.31;5013106;28;20053;-75
2021/03/09 03:31:37;;;;;;;77.18;37.85;;;;;;;6.36;66.56;100524.53;5013683;28;20046;-74
2021/03/09 03:34:06;;;;;;;75.25;35.05;;;;;;;6.33;66.59;100519.59;5013084;28;20049;-76
2021/03/09 03:36:36;;;;;;;69.25;33.50;;;;;;;6.23;66.59;100514.13;5016733;28;20060;-76
2021/03/09 03:39:05;;;;;;;69.32;34.67;;;;;;;6.26;67.00;100519.91;5026378;28;20061;-76
2021/03/09 03:41:32;;;;;;;73.68;35.30;;;;;;;6.27;67.71;100512.44;5014388;28;20058;-77
2021/03/09 03:43:59;;;;;;;70.78;33.65;;;;;;;6.17;67.77;100515.25;5013828;28;20045;-75
2021/03/09 03:46:26;;;;;;;68.53;34.60;;;;;;;6.25;67.25;100518.25;5014046;28;20060;-76
2021/03/09 03:49:03;;;;;;;69.95;33.30;;;;;;;6.30;67.41;100511.88;5020857;28;20050;-76
2021/03/09 03:51:46;;;;;;;68.25;33.95;;;;;;;6.22;67.06;100513.31;5024468;28;20069;-76
2021/03/09 03:54:30;;;;;;;71.68;32.90;;;;;;;6.24;67.03;100504.72;5024833;28;20038;-76
2021/03/09 03:57:14;;;;;;;69.75;33.70;;;;;;;6.26;67.18;100496.97;5025494;28;20064;-76
2021/03/09 03:59:50;;;;;;;69.82;34.08;;;;;;;6.25;67.21;100506.38;5037643;28;20057;-76
2021/03/09 04:02:21;;;;;;;68.93;34.40;;;;;;;6.24;67.39;100501.97;5043890;28;20387;-76
2021/03/09 04:04:53;;;;;;;73.50;34.53;;;;;;;6.12;67.50;100495.94;5043453;28;20391;-76
2021/03/09 04:07:32;;;;;;;77.25;34.88;;;;;;;6.09;67.81;100491.81;5044006;28;20068;-76
2021/03/09 04:10:03;;;;;;;68.63;32.65;;;;;;;6.12;68.25;100494.00;5044630;28;20059;-76
2021/03/09 04:12:34;;;;;;;72.88;34.58;;;;;;;6.08;67.80;100490.94;5043106;28;20046;-76
2021/03/09 04:15:08;;;;;;;72.80;34.88;;;;;;;6.07;67.73;100482.97;5042007;28;20053;-76
2021/03/09 04:17:46;;;;;;;73.43;35.22;;;;;;;6.02;67.95;100491.25;5042277;28;20060;-76
2021/03/09 04:20:17;;;;;;;76.25;36.63;;;;;;;6.05;68.18;100486.00;5031293;28;20053;-74
2021/03/09 04:22:50;;;;;;;77.53;36.20;;;;;;;6.06;68.33;100476.59;5023387;28;20064;-75
2021/03/09 04:25:26;;;;;;;74.00;35.33;;;;;;;6.03;67.50;100473.59;5039518;28;20068;-75
2021/03/09 04:27:58;;;;;;;80.20;39.03;;;;;;;6.02;68.00;100478.25;5041669;28;20061;-74
2021/03/09 04:30:30;;;;;;;78.95;37.08;;;;;;;6.00;67.87;100483.25;5042890;28;20057;-74
2021/03/09 04:33:01;;;;;;;79.35;35.70;;;;;;;5.99;67.99;100464.19;5043138;28;20071;-74
2021/03/09 04:35:36;;;;;;;80.43;37.22;;;;;;;5.92;68.14;100486.56;5045282;28;20057;-75
2021/03/09 04:38:09;;;;;;;87.03;37.63;;;;;;;5.77;68.51;100475.59;5046194;28;20053;-75
2021/03/09 04:40:42;;;;;;;85.70;38.17;;;;;;;5.74;68.83;100476.16;5046373;28;20053;-74
2021/03/09 04:43:20;;;;;;;75.82;36.50;;;;;;;5.65;68.76;100471.22;5045289;28;20053;-74
2021/03/09 04:45:51;;;;;;;78.30;38.88;;;;;;;5.64;69.25;100475.06;5046495;28;20057;-74
2021/03/09 04:48:18;;;;;;;80.50;38.60;;;;;;;5.65;69.05;100473.97;5040052;28;20046;-74
2021/03/09 04:50:46;;;;;;;80.90;36.33;;;;;;;5.65;68.78;100473.97;5036638;28;20046;-74
2021/03/09 04:53:14;;;;;;;75.78;36.30;;;;;;;5.64;69.51;100477.00;5034656;28;20054;-75
2021/03/09 04:55:40;;;;;;;76.63;38.30;;;;;;;5.64;69.08;100472.31;5016548;28;20065;-75
2021/03/09 04:58:07;;;;;;;73.68;34.80;;;;;;;5.65;68.82;100471.22;5016485;28;20054;-74
2021/03/09 05:00:34;;;;;;;80.80;38.55;;;;;;;5.57;69.22;100469.03;5016699;28;20045;-74
2021/03/09 05:03:01;;;;;;;72.88;36.97;;;;;;;5.65;68.98;100465.69;5016618;28;20065;-74
2021/03/09 05:05:30;;;;;;;79.75;40.15;;;;;;;5.59;69.08;100471.50;5016398;28;20065;-74
2021/03/09 05:07:57;;;;;;;86.40;39.13;;;;;;;5.58;69.68;100464.31;5016250;28;20057;-74
2021/03/09 05:10:25;;;;;;;76.35;35.03;;;;;;;5.59;69.85;100464.03;5016023;28;20049;-74
2021/03/09 05:12:52;;;;;;;79.65;37.30;;;;;;;5.59;69.54;100460.47;5016283;28;20058;-74
2021/03/09 05:15:19;;;;;;;76.97;38.45;;;;;;;5.60;69.66;100460.16;5015898;28;20072;-74
2021/03/09 05:17:47;;;;;;;71.63;36.95;;;;;;;5.63;69.81;100459.63;5016622;28;20069;-74
2021/03/09 05:20:15;;;;;;;70.68;35.15;;;;;;;5.60;69.61;100459.34;5016842;28;20057;-74
2021/03/09 05:22:42;;;;;;;72.65;36.63;;;;;;;5.60;69.77;100460.16;5017109;28;20053;-75
2021/03/09 05:25:12;;;;;;;77.85;38.42;;;;;;;5.57;69.70;100451.63;5015894;28;20061;-74
2021/03/09 05:27:41;;;;;;;;;;;;;;;5.56;69.75;100452.72;5016497;28;20050;-74
2021/03/09 05:30:10;;;;;;;76.43;38.15;;;;;;;5.45;70.14;100451.94;4977372;28;20375;-75
2021/03/09 05:32:37;;;;;;;76.53;37.08;;;;;;;5.46;70.20;100450.84;4976144;28;20059;-75
2021/03/09 05:35:05;;;;;;;76.00;37.92;;;;;;;5.43;70.50;100449.44;4976714;28;20058;-75
2021/03/09 05:37:32;;;;;;;76.20;37.83;;;;;;;5.49;69.97;100447.50;4987107;28;20058;-75
2021/03/09 05:39:59;;;;;;;71.85;33.45;;;;;;;5.43;69.84;100451.38;4995565;28;20054;-75
2021/03/09 05:42:26;;;;;;;73.57;36.35;;;;;;;5.43;70.40;100451.38;4996214;28;20061;-75
2021/03/09 05:44:54;;;;;;;74.53;37.33;;;;;;;5.43;70.45;100443.09;4995967;28;20058;-75
2021/03/09 05:47:23;;;;;;;72.78;35.63;;;;;;;5.36;70.57;100457.19;4996117;28;20046;-75
2021/03/09 05:49:58;;;;;;;72.72;35.55;;;;;;;5.31;70.57;100450.84;5004951;28;20069;-74
2021/03/09 05:52:36;;;;;;;75.22;36.03;;;;;;;5.34;70.30;100450.31;5005304;28;20058;-74
2021/03/09 05:55:10;;;;;;;71.07;36.13;;;;;;;5.30;70.52;100450.03;4988792;28;20046;-74
2021/03/09 05:57:43;;;;;;;73.45;36.72;;;;;;;5.32;70.72;100449.75;4983250;28;20055;-74
2021/03/09 06:00:18;;;;;;;78.78;36.33;;;;;;;5.41;70.51;100442.56;4984426;28;20114;-75
2021/03/09 06:02:53;;;;;;;78.30;36.13;;;;;;;5.39;70.48;100444.75;4986328;28;20065;-74
2021/03/09 06:05:22;;;;;;;78.75;38.30;;;;;;;5.39;71.18;100440.06;4995531;28;20046;-76
2021/03/09 06:08:02;;;;;;;79.30;37.85;;;;;;;5.43;70.20;100432.88;5001545;28;20449;-76
2021/03/09 06:10:31;;;;;;;75.15;37.40;;;;;;;5.42;70.50;100441.47;4988243;28;20054;-76
2021/03/09 06:13:00;;;;;;;71.95;35.10;;;;;;;5.45;70.37;100444.47;4979788;28;20057;-76
2021/03/09 06:15:54;;;;;;;75.63;38.38;;;;;;;5.46;70.70;100434.25;4982562;28;20408;-76
2021/03/09 06:18:31;;;;;;;82.07;38.45;;;;;;;5.36;71.06;100439.81;4998492;28;20475;-76
2021/03/09 06:21:10;;;;;;;82.78;38.90;;;;;;;5.38;70.59;100432.91;5002676;28;20534;-76
2021/03/09 06:23:44;;;;;;;73.28;34.88;;;;;;;5.39;71.05;100428.19;5000233;28;20507;-76
2021/03/09 06:26:42;;;;;;;77.20;37.25;;;;;;;5.44;70.88;100419.91;4993487;28;20069;-76
2021/03/09 06:29:18;;;;;;;71.85;34.83;;;;;;;5.41;70.79;100421.28;5017188;28;20053;-76
2021/03/09 06:32:09;;;;;;;71.43;36.78;;;;;;;5.46;70.87;100424.03;5026293;28;20518;-76
2021/03/09 06:34:40;;;;;;;78.35;38.38;;;;;;;5.37;71.22;100413.84;5019296;28;20065;-76
2021/03/09 06:37:20;;;;;;;64.32;34.03;;;;;;;5.36;70.91;100423.25;5024290;28;20057;-76
2021/03/09 06:39:54;;;;;;;;;;;;;;;5.37;71.12;100420.19;5039465;28;20057;-76
2021/03/09 06:42:42;;;;;;;;;;;;;;;;;;;;;
2021/03/09 06:45:23;;;;;;;61.17;32.95;;;;;;;5.38;70.74;100416.31;5039551;28;20049;-77
2021/03/09 06:47:52;;;;;;;62.95;31.50;;;;;;;5.40;70.65;100424.34;5038701;28;20057;-78
2021/03/09 06:50:20;;;;;;;63.25;31.60;;;;;;;5.36;71.33;100410.25;5036193;28;20068;-77
2021/03/09 06:52:59;;;;;;;66.38;34.17;;;;;;;5.44;70.90;100408.84;5036871;28;20049;-78
2021/03/09 06:55:28;;;;;;;60.90;32.38;;;;;;;5.39;70.75;100428.19;5032863;28;20061;-77
2021/03/09 06:58:04;;;;;;;58.67;33.58;;;;;;;5.35;70.84;100421.56;5022265;28;20404;-77
2021/03/09 07:00:31;;;;;;;47.38;26.63;;;;;;;5.42;70.20;100430.41;5021241;28;20061;-77
2021/03/09 07:03:01;;;;;;;50.95;26.83;;;;;;;5.43;70.12;100430.09;5024515;28;20401;-77
2021/03/09 07:05:28;;;;;;;56.50;30.95;;;;;;;5.39;70.38;100425.44;5028672;28;20045;-77
2021/03/09 07:07:55;;;;;;;55.63;31.08;;;;;;;5.42;70.49;100422.94;5033019;28;20053;-77
2021/03/09 07:10:26;;;;;;;51.42;28.10;;;;;;;5.41;70.62;100426.78;5034722;28;20426;-77
2021/03/09 07:12:53;;;;;;;50.25;27.75;;;;;;;5.49;70.31;100423.47;5023445;28;20054;-76
2021/03/09 07:15:21;;;;;;;52.60;29.63;;;;;;;5.49;70.39;100422.63;5016171;28;20487;-76
2021/03/09 07:17:51;;;;;;;46.40;27.40;;;;;;;5.55;70.44;100415.16;5033739;28;20491;-76
2021/03/09 07:20:19;;;;;;;50.15;28.80;;;;;;;5.51;70.12;100423.19;5033641;28;20403;-77
2021/03/09 07:22:47;;;;;;;49.38;28.58;;;;;;;5.55;70.35;100417.94;5035500;28;20057;-77
2021/03/09 07:25:15;;;;;;;46.70;25.40;;;;;;;5.61;70.27;100419.56;5025024;28;20052;-77
2021/03/09 07:27:51;;;;;;;45.95;26.10;;;;;;;5.78;68.89;100428.31;5014540;28;20050;-77
2021/03/09 07:30:20;;;;;;;46.20;26.08;;;;;;;5.84;69.07;100418.06;5030582;28;20053;-77
2021/03/09 07:32:49;;;;;;;45.78;24.35;;;;;;;5.87;68.66;100425.78;5033615;28;20053;-77
2021/03/09 07:35:20;;;;;;;45.10;26.83;;;;;;;5.98;68.60;100423.81;5033926;28;20060;-75
2021/03/09 07:37:47;;;;;;;44.40;25.90;;;;;;;5.98;68.52;100429.34;5028514;28;20054;-78
2021/03/09 07:40:17;;;;;;;38.47;20.17;;;;;;;5.96;68.04;100417.75;5027766;28;20053;-76
2021/03/09 07:42:44;;;;;;;44.10;26.60;;;;;;;5.91;68.50;100418.59;5028274;28;20057;-76
2021/03/09 07:45:14;;;;;;;45.17;26.73;;;;;;;6.00;68.87;100424.38;5030270;28;20072;-76
2021/03/09 07:47:52;;;;;;;40.10;23.67;;;;;;;5.91;68.65;100418.59;5030293;28;20060;-76
2021/03/09 07:50:26;;;;;;;44.65;23.63;;;;;;;5.99;68.37;100418.03;5037707;28;20415;-75
2021/03/09 07:53:12;;;;;;;41.13;22.60;;;;;;;5.97;68.43;100423.00;5037245;28;20054;-76
2021/03/09 07:55:41;;;;;;;43.53;23.88;;;;;;;6.06;68.57;100417.69;5032592;28;20064;-76
2021/03/09 07:58:25;;;;;;;38.95;22.02;;;;;;;6.07;68.15;100413.84;5039061;28;20053;-75
2021/03/09 08:00:57;;;;;;;35.03;21.35;;;;;;;5.93;68.23;100412.78;5033813;28;20054;-76
2021/03/09 08:03:33;;;;;;;40.60;23.85;;;;;;;5.99;68.09;100414.44;5035198;28;20053;-77
2021/03/09 08:06:04;;;;;;;35.78;21.88;;;;;;;5.92;68.49;100413.88;5033042;28;20077;-75
2021/03/09 08:08:47;;;;;;;32.78;20.40;;;;;;;5.95;67.96;100419.69;5039456;28;20065;-76
2021/03/09 08:11:38;;;;;;;39.28;23.60;;;;;;;6.02;68.65;100414.66;5042129;28;20061;-77
2021/03/09 08:14:23;;;;;;;41.88;23.23;;;;;;;6.00;68.66;100419.66;5036265;28;20045;-76
2021/03/09 08:16:58;;;;;;;40.00;23.80;;;;;;;6.09;68.85;100414.38;5039732;28;20432;-77
2021/03/09 08:19:46;;;;;;;41.65;24.45;;;;;;;6.17;68.82;100408.22;5033893;28;20054;-77
2021/03/09 08:22:36;;;;;;;39.25;23.38;;;;;;;6.22;68.25;100412.91;5040081;28;20053;-77
2021/03/09 08:25:04;;;;;;;;;;;;;;;6.25;67.78;100398.50;5037268;28;20053;-75
2021/03/09 08:27:41;;;;;;;31.38;17.23;;;;;;;6.26;67.01;100405.69;5040858;28;20425;-75
2021/03/09 08:30:30;;;;;;;38.00;22.65;;;;;;;6.20;67.99;100409.59;5003461;28;20069;-75
2021/03/09 08:33:25;;;;;;;35.45;21.15;;;;;;;6.12;68.16;100408.25;5003276;28;20062;-75
2021/03/09 08:35:54;;;;;;;35.22;20.65;;;;;;;6.08;68.24;100402.47;5002767;28;20051;-75
2021/03/09 08:38:25;;;;;;;37.17;23.27;;;;;;;5.97;68.77;100411.94;5004782;28;20248;-75
2021/03/09 08:41:12;;;;;;;36.63;22.80;;;;;;;5.98;69.09;100410.81;5001994;28;20496;-76
2021/03/09 08:44:04;;;;;;;33.42;18.95;;;;;;;6.02;68.36;100405.56;5004126;28;20062;-75
2021/03/09 08:46:52;;;;;;;37.88;22.45;;;;;;;6.08;68.74;100413.53;5002342;28;20058;-75
2021/03/09 08:49:49;;;;;;;32.83;19.58;;;;;;;6.14;68.26;100406.03;4999148;28;20058;-76
2021/03/09 08:52:43;;;;;;;36.15;20.95;;;;;;;6.03;68.80;100402.50;5000903;28;20062;-76
2021/03/09 08:55:16;;;;;;;33.47;20.90;;;;;;;6.01;68.69;100413.03;4997046;28;20057;-76
2021/03/09 08:57:44;;;;;;;31.00;19.13;;;;;;;6.10;68.17;100410.47;4997210;28;20061;-77
2021/03/09 09:00:17;;;;;;;36.15;22.88;;;;;;;6.03;68.87;100399.75;4999115;28;20066;-75
2021/03/09 09:02:48;;;;;;;36.83;22.48;;;;;;;6.03;68.91;100399.75;5002258;28;20058;-76
2021/03/09 09:05:20;;;;;;;32.28;21.20;;;;;;;6.04;68.70;100393.09;5001342;28;20054;-77
2021/03/09 09:07:52;;;;;;;37.13;22.15;;;;;;;5.98;69.11;100408.06;5003218;28;20061;-75
2021/03/09 09:10:25;;;;;;;34.83;22.05;;;;;;;6.01;69.17;100401.97;4999829;28;20069;-75
2021/03/09 09:12:59;;;;;;;35.28;21.05;;;;;;;5.92;69.08;100405.56;5002987;28;20054;-76
2021/03/09 09:15:33;;;;;;;36.92;22.40;;;;;;;5.99;68.98;100398.66;4996866;28;20057;-78
2021/03/09 09:18:09;;;;;;;35.88;22.15;;;;;;;6.06;69.47;100412.16;5000387;28;20065;-75
2021/03/09 09:20:40;;;;;;;34.92;21.58;;;;;;;6.13;68.35;100398.84;5000499;28;20061;-76
2021/03/09 09:23:12;;;;;;;36.28;22.23;;;;;;;6.18;68.58;100390.53;4999452;28;20058;-76
2021/03/09 09:25:46;;;;;;;34.63;22.33;;;;;;;6.08;69.15;100393.34;4996754;28;20054;-76
2021/03/09 09:28:27;;;;;;;34.67;23.38;;;;;;;6.18;69.91;100386.94;5006318;28;20419;-76
2021/03/09 09:31:06;;;;;;;31.80;20.08;;;;;;;6.27;68.99;100387.97;5032701;28;20057;-74
2021/03/09 09:33:40;;;;;;;32.47;20.92;;;;;;;6.20;68.54;100388.28;5037019;28;20938;-74
2021/03/09 09:36:11;;;;;;;33.22;21.08;;;;;;;6.36;67.96;100377.94;5035493;28;20049;-74
2021/03/09 09:38:39;;;;;;;30.65;20.25;;;;;;;6.36;67.84;100380.69;5035947;28;20488;-74
2021/03/09 09:41:11;;;;;;;34.90;22.30;;;;;;;6.51;67.87;100374.25;5032235;28;20068;-75
2021/03/09 09:43:46;;;;;;;34.20;21.08;;;;;;;6.66;67.10;100371.31;5035392;28;20058;-75
2021/03/09 09:46:22;;;;;;;30.90;20.45;;;;;;;6.66;66.72;100379.63;5039541;28;20049;-76
2021/03/09 09:48:51;;;;;;;32.15;20.60;;;;;;;6.82;66.97;100377.53;5029013;28;20057;-76
2021/03/09 09:51:19;;;;;;;31.40;20.60;;;;;;;6.91;67.16;100374.97;5032853;28;20057;-76
2021/03/09 09:53:50;;;;;;;37.00;21.15;;;;;;;6.94;66.75;100379.09;5030701;28;20518;-76
2021/03/09 09:56:24;;;;;;;29.45;19.98;;;;;;;6.98;65.58;100380.16;5031164;28;20455;-76
2021/03/09 09:58:53;;;;;;;31.40;20.55;;;;;;;6.99;65.97;100376.25;5030952;28;20060;-75
2021/03/09 10:01:22;;;;;;;31.55;19.92;;;;;;;7.02;65.31;100375.69;5029141;28;20057;-75
2021/03/09 10:03:53;;;;;;;31.03;20.77;;;;;;;7.02;65.73;100379.28;5024696;28;20057;-75
2021/03/09 10:06:21;;;;;;;31.90;21.15;;;;;;;6.83;66.57;100381.97;5032319;28;20076;-76
2021/03/09 10:08:50;;;;;;;32.13;20.25;;;;;;;6.72;67.06;100377.66;5031851;28;20058;-75
2021/03/09 10:11:18;;;;;;;33.85;20.85;;;;;;;6.53;67.73;100377.53;5027380;28;20049;-75
2021/03/09 10:13:46;;;;;;;35.40;21.92;;;;;;;6.22;69.33;100376.97;5030915;28;20506;-75
2021/03/09 10:16:13;;;;;;;39.10;22.85;;;;;;;6.30;69.22;100381.88;5032736;28;20053;-75
2021/03/09 10:18:40;;;;;;;31.92;19.85;;;;;;;6.29;69.21;100381.03;5031036;28;20056;-74
2021/03/09 10:21:11;;;;;;;32.22;19.75;;;;;;;6.09;68.89;100379.25;5028532;28;20044;-75
2021/03/09 10:23:56;;;;;;;31.08;19.95;;;;;;;5.96;70.17;100392.88;5030738;28;20045;-75
2021/03/09 10:26:28;;;;;;;31.02;19.92;;;;;;;6.02;69.86;100387.03;5030772;28;20057;-77
2021/03/09 10:29:11;;;;;;;29.98;17.73;;;;;;;6.08;69.51;100391.41;5030755;28;20057;-75
2021/03/09 10:31:49;;;;;;;30.63;18.98;;;;;;;6.08;69.20;100390.59;5032614;28;20057;-75
2021/03/09 10:34:17;;;;;;;24.55;15.30;;;;;;;6.10;69.03;100380.88;5031185;28;20471;-75
2021/03/09 10:36:52;;;;;;;28.13;16.75;;;;;;;6.13;69.21;100382.25;5032030;28;20379;-75
2021/03/09 10:39:20;;;;;;;27.67;16.65;;;;;;;6.08;69.43;100390.59;5030362;28;20410;-74
2021/03/09 10:41:47;;;;;;;27.60;18.27;;;;;;;6.12;69.54;100377.03;5029746;28;20053;-75
2021/03/09 10:44:32;;;;;;;29.80;18.02;;;;;;;6.24;69.69;100383.84;5031926;28;20057;-75
2021/03/09 10:47:00;;;;;;;26.88;16.27;;;;;;;6.26;69.03;100381.63;5027042;28;20073;-75
2021/03/09 10:49:32;;;;;;;24.80;15.70;;;;;;;6.29;69.14;100375.50;5028568;28;20064;-74
2021/03/09 10:52:06;;;;;;;21.40;13.60;;;;;;;6.33;68.21;100381.28;5036061;28;20060;-74
2021/03/09 10:54:38;;;;;;;22.35;15.40;;;;;;;6.44;68.09;100377.31;5035179;28;20049;-74
2021/03/09 10:57:10;;;;;;;25.48;17.23;;;;;;;6.46;69.10;100375.09;5030739;28;20053;-75
2021/03/09 10:59:39;;;;;;;23.00;15.63;;;;;;;6.43;68.02;100378.44;5035197;28;20509;-75
2021/03/09 11:02:13;;;;;;;23.73;15.93;;;;;;;6.39;68.11;100373.78;5025872;28;20053;-75
2021/03/09 11:04:46;;;;;;;22.50;16.35;;;;;;;6.33;68.48;100383.22;5027328;28;20064;-75
2021/03/09 11:07:19;;;;;;;20.23;13.90;;;;;;;6.37;67.99;100382.38;5034062;28;20065;-75
2021/03/09 11:09:48;;;;;;;24.38;15.15;;;;;;;6.34;68.07;100371.88;5028281;28;20068;-75
2021/03/09 11:12:18;;;;;;;27.33;17.23;;;;;;;6.45;69.04;100381.75;5034937;28;20056;-75
2021/03/09 11:14:48;;;;;;;22.85;15.75;;;;;;;6.58;68.09;100383.03;5035141;28;20060;-75
2021/03/09 11:17:19;;;;;;;26.17;17.98;;;;;;;6.70;68.62;100379.88;5035754;28;20053;-75
2021/03/09 11:19:52;;;;;;;24.08;16.83;;;;;;;6.84;67.69;100378.06;5035002;28;20053;-75
2021/03/09 11:22:23;;;;;;;23.55;15.82;;;;;;;6.93;68.05;100371.91;5034069;28;20053;-75
2021/03/09 11:24:51;;;;;;;21.55;14.85;;;;;;;6.95;67.10;100381.59;5028491;28;20064;-75
2021/03/09 11:27:20;;;;;;;22.45;15.18;;;;;;;6.88;67.67;100378.31;5034998;28;20065;-75
2021/03/09 11:29:52;;;;;;;19.20;13.25;;;;;;;6.93;65.95;100378.28;5035157;28;20495;-75
2021/03/09 11:32:20;;;;;;;22.58;15.50;;;;;;;6.94;68.17;100368.84;5034927;28;20057;-75
2021/03/09 11:34:48;;;;;;;24.25;15.73;;;;;;;7.01;67.44;100369.31;5033355;28;20068;-75
2021/03/09 11:37:16;;;;;;;23.45;15.65;;;;;;;7.18;67.79;100368.03;5033652;28;20088;-75
2021/03/09 11:39:52;;;;;;;22.30;15.55;;;;;;;7.26;67.24;100370.97;5030548;28;20069;-75
2021/03/09 11:42:28;;;;;;;22.35;15.75;;;;;;;7.42;66.86;100373.56;5030217;28;20072;-74
2021/03/09 11:44:57;;;;;;;20.30;13.38;;;;;;;7.44;65.61;100363.84;5031602;28;20046;-75